createdAt,value
2023-04-15T00:01:19.126Z,97063.81
2023-04-15T00:03:46.350Z,97077.41
2023-04-15T00:06:13.711Z,97082.03
2023-04-15T00:08:40.505Z,97084.66
2023-04-15T00:11:10.785Z,97085.34
2023-04-15T00:13:40.884Z,97081.03
2023-04-15T00:16:11.025Z,97078.59
2023-04-15T00:18:40.449Z,97081.13
2023-04-15T00:21:09.582Z,97076.84
2023-04-15T00:23:39.128Z,97070.47
2023-04-15T00:26:05.665Z,97078.56
2023-04-15T00:28:32.231Z,97089.00
2023-04-15T00:30:58.782Z,97086.69
2023-04-15T00:33:25.506Z,97091.53
2023-04-15T00:35:52.063Z,97086.53
2023-04-15T00:38:18.655Z,97088.69
2023-04-15T00:40:45.660Z,97089.91
2023-04-15T00:43:12.245Z,97085.78
2023-04-15T00:45:42.254Z,97090.53
2023-04-15T00:48:12.963Z,97088.25
2023-04-15T00:50:41.215Z,97082.22
2023-04-15T00:53:07.740Z,97091.63
2023-04-15T00:55:34.906Z,97080.31
2023-04-15T00:58:01.536Z,97083.03
2023-04-15T01:00:28.137Z,97086.78
2023-04-15T01:02:54.793Z,97078.13
2023-04-15T01:05:21.678Z,97081.88
2023-04-15T01:07:48.693Z,97072.00
2023-04-15T01:10:15.364Z,97085.88
2023-04-15T01:12:42.474Z,97077.13
2023-04-15T01:15:13.927Z,97083.13
2023-04-15T01:17:43.658Z,97075.69
2023-04-15T01:20:13.569Z,97078.38
2023-04-15T01:22:45.201Z,97094.16
2023-04-15T01:25:19.693Z,97088.94
2023-04-15T01:27:46.486Z,97089.31
2023-04-15T01:30:13.010Z,97091.69
2023-04-15T01:32:39.556Z,97089.50
2023-04-15T01:35:06.665Z,97094.44
2023-04-15T01:37:33.628Z,97084.69
2023-04-15T01:40:00.251Z,97083.03
2023-04-15T01:42:27.736Z,97060.97
2023-04-15T01:44:54.442Z,97088.69
2023-04-15T01:47:20.926Z,97075.47
2023-04-15T01:49:47.457Z,97076.38
2023-04-15T01:52:14.425Z,97090.88
2023-04-15T01:54:43.046Z,97079.56
2023-04-15T01:57:09.886Z,97084.28
2023-04-15T01:59:37.098Z,97080.03
2023-04-15T02:02:04.289Z,97089.06
2023-04-15T02:04:30.900Z,97085.94
2023-04-15T02:06:57.517Z,97086.13
2023-04-15T02:09:24.030Z,97066.91
2023-04-15T02:11:51.583Z,97082.03
2023-04-15T02:14:18.117Z,97081.66
2023-04-15T02:16:47.400Z,97080.75
2023-04-15T02:19:17.608Z,97088.13
2023-04-15T02:21:44.805Z,97078.84
2023-04-15T02:24:12.299Z,97090.69
2023-04-15T02:26:39.182Z,97097.88
2023-04-15T02:29:05.838Z,97092.22
2023-04-15T02:31:36.960Z,97096.16
2023-04-15T02:34:04.372Z,97105.38
2023-04-15T02:36:31.686Z,97099.91
2023-04-15T02:38:58.289Z,97123.69
2023-04-15T02:41:27.694Z,97112.31
2023-04-15T02:43:54.608Z,97114.03
2023-04-15T02:46:22.846Z,97105.44
2023-04-15T02:48:50.277Z,97106.72
2023-04-15T02:51:20.006Z,97114.22
2023-04-15T02:53:50.113Z,97109.00
2023-04-15T02:56:19.846Z,97117.94
2023-04-15T02:58:47.044Z,97114.91
2023-04-15T03:01:13.843Z,97115.19
2023-04-15T03:03:40.559Z,97129.31
2023-04-15T03:06:08.891Z,97123.09
2023-04-15T03:08:35.453Z,97142.38
2023-04-15T03:11:02.704Z,97131.31
2023-04-15T03:13:29.230Z,97140.91
2023-04-15T03:15:55.743Z,97143.63
2023-04-15T03:18:22.324Z,97143.16
2023-04-15T03:20:51.893Z,97140.97
2023-04-15T03:23:21.465Z,97152.63
2023-04-15T03:25:50.283Z,97136.03
2023-04-15T03:28:18.916Z,97148.72
2023-04-15T03:30:45.673Z,97135.47
2023-04-15T03:33:12.107Z,97135.91
2023-04-15T03:35:38.716Z,97162.47
2023-04-15T03:38:05.215Z,97173.22
2023-04-15T03:40:31.756Z,97156.75
2023-04-15T03:42:58.181Z,97158.19
2023-04-15T03:45:25.633Z,97174.88
2023-04-15T03:47:52.127Z,97180.41
2023-04-15T03:50:21.801Z,97174.50
2023-04-15T03:52:51.267Z,97170.53
2023-04-15T03:55:19.174Z,97181.59
2023-04-15T03:57:45.654Z,97188.69
2023-04-15T04:00:12.238Z,97188.19
2023-04-15T04:02:39.195Z,97192.34
2023-04-15T04:05:06.266Z,97195.16
2023-04-15T04:07:32.848Z,97203.53
2023-04-15T04:09:59.314Z,97201.38
2023-04-15T04:12:25.777Z,97217.88
2023-04-15T04:14:52.191Z,97212.97
2023-04-15T04:17:22.186Z,97211.94
2023-04-15T04:19:48.655Z,97219.22
2023-04-15T04:22:15.130Z,97219.81
2023-04-15T04:24:41.674Z,97219.91
2023-04-15T04:27:08.233Z,97232.06
2023-04-15T04:29:34.832Z,97237.19
2023-04-15T04:32:01.450Z,97258.09
2023-04-15T04:34:27.938Z,97267.16
2023-04-15T04:36:54.443Z,97270.28
2023-04-15T04:39:24.435Z,97275.75
2023-04-15T04:41:52.462Z,97285.97
2023-04-15T04:44:18.978Z,97285.50
2023-04-15T04:46:45.450Z,97298.50
2023-04-15T04:49:11.879Z,97293.56
2023-04-15T04:51:38.468Z,97276.91
2023-04-15T04:54:05.145Z,97269.53
2023-04-15T04:56:31.618Z,97260.97
2023-04-15T04:58:58.227Z,97284.50
2023-04-15T05:01:26.641Z,97282.69
2023-04-15T05:03:56.607Z,97292.56
2023-04-15T05:06:26.423Z,97301.47
2023-04-15T05:08:56.670Z,97314.81
2023-04-15T05:11:26.300Z,97303.44
2023-04-15T05:13:53.647Z,97302.44
2023-04-15T05:16:21.356Z,97307.72
2023-04-15T05:18:47.956Z,97323.38
2023-04-15T05:21:14.566Z,97323.84
2023-04-15T05:23:41.362Z,97323.84
2023-04-15T05:26:07.930Z,97325.19
2023-04-15T05:28:34.583Z,97323.50
2023-04-15T05:31:01.472Z,97334.75
2023-04-15T05:33:28.007Z,97328.13
2023-04-15T05:35:54.528Z,97350.88
2023-04-15T05:38:23.990Z,97326.47
2023-04-15T05:40:54.012Z,97353.50
2023-04-15T05:43:21.611Z,97361.09
2023-04-15T05:45:48.736Z,97356.94
2023-04-15T05:48:15.495Z,97358.78
2023-04-15T05:50:42.830Z,97343.16
2023-04-15T05:53:09.676Z,97360.28
2023-04-15T05:55:36.518Z,97338.66
2023-04-15T05:58:03.735Z,97352.69
2023-04-15T06:00:32.316Z,97357.97
2023-04-15T06:02:59.221Z,97349.56
2023-04-15T06:05:25.793Z,97349.72
2023-04-15T06:07:53.438Z,97334.41
2023-04-15T06:10:19.926Z,97356.47
2023-04-15T06:12:46.575Z,97363.09
2023-04-15T06:15:13.113Z,97367.00
2023-04-15T06:17:39.627Z,97374.56
2023-04-15T06:20:06.519Z,97370.28
2023-04-15T06:22:32.998Z,97354.78
2023-04-15T06:24:59.562Z,97357.94
2023-04-15T06:27:26.085Z,97387.59
2023-04-15T06:29:53.694Z,97370.66
2023-04-15T06:32:20.385Z,97389.47
2023-04-15T06:34:47.209Z,97389.13
2023-04-15T06:37:16.319Z,97385.00
2023-04-15T06:39:43.460Z,97409.22
2023-04-15T06:42:10.825Z,97409.22
2023-04-15T06:44:37.484Z,97388.94
2023-04-15T06:47:04.128Z,97409.56
2023-04-15T06:49:30.629Z,97404.13
2023-04-15T06:51:57.218Z,97398.34
2023-04-15T06:54:23.829Z,97420.44
2023-04-15T06:56:53.201Z,97410.38
2023-04-15T06:59:20.052Z,97417.81
2023-04-15T07:01:46.623Z,97414.50
2023-04-15T07:04:13.463Z,97430.16
2023-04-15T07:06:39.996Z,97438.22
2023-04-15T07:09:06.481Z,97437.22
2023-04-15T07:11:32.993Z,97420.09
2023-04-15T07:13:59.460Z,97436.88
2023-04-15T07:16:27.858Z,97450.75
2023-04-15T07:18:56.132Z,97443.00
2023-04-15T07:21:25.738Z,97441.81
2023-04-15T07:23:55.445Z,97437.03
2023-04-15T07:26:26.589Z,97444.16
2023-04-15T07:28:58.301Z,97438.34
2023-04-15T07:31:24.792Z,97438.69
2023-04-15T07:33:54.925Z,97422.56
2023-04-15T07:36:21.679Z,97452.56
2023-04-15T07:38:55.872Z,97446.66
2023-04-15T07:41:23.912Z,97433.59
2023-04-15T07:43:51.038Z,97433.28
2023-04-15T07:46:18.246Z,97433.41
2023-04-15T07:48:44.824Z,97427.63
2023-04-15T07:51:11.337Z,97420.38
2023-04-15T07:53:38.164Z,97438.59
2023-04-15T07:56:05.003Z,97444.66
2023-04-15T07:58:31.667Z,97449.50
2023-04-15T08:00:58.917Z,97401.22
2023-04-15T08:03:25.990Z,97442.69
2023-04-15T08:05:56.040Z,97425.88
2023-04-15T08:08:24.155Z,97464.84
2023-04-15T08:10:57.774Z,97465.69
2023-04-15T08:13:24.616Z,97471.13
2023-04-15T08:16:13.586Z,97467.78
2023-04-15T08:18:40.091Z,97457.63
2023-04-15T08:21:06.623Z,97467.84
2023-04-15T08:23:33.567Z,97473.78
2023-04-15T08:26:00.226Z,97490.66
2023-04-15T08:28:27.063Z,97489.19
2023-04-15T08:30:53.654Z,97487.38
2023-04-15T08:33:20.091Z,97446.66
2023-04-15T08:35:46.575Z,97469.91
2023-04-15T08:38:13.067Z,97508.00
2023-04-15T08:40:44.689Z,97505.19
2023-04-15T08:43:34.616Z,97459.00
2023-04-15T08:46:01.924Z,97507.19
2023-04-15T08:48:34.630Z,97500.09
2023-04-15T08:51:01.895Z,97486.06
2023-04-15T08:53:30.168Z,97522.84
2023-04-15T08:55:58.039Z,97523.66
2023-04-15T08:58:25.426Z,97499.44
2023-04-15T09:00:57.255Z,97516.06
2023-04-15T09:03:24.926Z,97518.72
2023-04-15T09:05:55.562Z,97536.03
2023-04-15T09:08:24.929Z,97509.47
2023-04-15T09:10:55.118Z,97543.13
2023-04-15T09:13:26.077Z,97533.59
2023-04-15T09:15:53.707Z,97546.41
2023-04-15T09:18:36.493Z,97553.97
2023-04-15T09:21:11.433Z,97551.69
2023-04-15T09:23:39.353Z,97544.59
2023-04-15T09:26:06.498Z,97549.91
2023-04-15T09:28:33.390Z,97549.59
2023-04-15T09:31:01.101Z,97554.34
2023-04-15T09:33:29.219Z,97537.69
2023-04-15T09:36:05.147Z,97561.63
2023-04-15T09:38:32.376Z,97562.44
2023-04-15T09:40:59.418Z,97575.69
2023-04-15T09:43:56.589Z,97588.50
2023-04-15T09:46:44.378Z,97595.25
2023-04-15T09:49:12.317Z,97587.50
2023-04-15T09:51:39.134Z,97599.22
2023-04-15T09:54:05.876Z,97592.28
2023-04-15T09:56:36.211Z,97608.78
2023-04-15T09:59:02.764Z,97617.00
2023-04-15T10:01:29.640Z,97597.38
2023-04-15T10:03:58.023Z,97597.69
2023-04-15T10:06:26.874Z,97603.44
2023-04-15T10:09:01.156Z,97615.34
2023-04-15T10:11:32.915Z,97601.47
2023-04-15T10:14:01.211Z,97600.16
2023-04-15T10:16:29.299Z,97628.56
2023-04-15T10:18:57.084Z,97617.19
2023-04-15T10:21:28.855Z,97633.34
2023-04-15T10:23:56.460Z,97612.56
2023-04-15T10:26:27.536Z,97633.38
2023-04-15T10:28:54.919Z,97628.97
2023-04-15T10:31:24.106Z,97625.66
2023-04-15T10:33:56.865Z,97631.91
2023-04-15T10:36:26.772Z,97637.84
2023-04-15T10:38:55.862Z,97603.47
2023-04-15T10:41:28.065Z,97613.84
2023-04-15T10:44:02.333Z,97639.13
2023-04-15T10:46:43.962Z,97639.25
2023-04-15T10:49:15.592Z,97629.88
2023-04-15T10:51:47.252Z,97633.13
2023-04-15T10:54:32.567Z,97640.53
2023-04-15T10:57:01.884Z,97659.75
2023-04-15T10:59:38.510Z,97649.03
2023-04-15T11:02:08.425Z,97624.47
2023-04-15T11:04:57.667Z,97655.97
2023-04-15T11:07:38.019Z,97654.97
2023-04-15T11:10:30.902Z,97667.78
2023-04-15T11:13:00.024Z,97648.47
2023-04-15T11:15:40.287Z,97669.84
2023-04-15T11:18:18.503Z,97670.06
2023-04-15T11:20:47.443Z,97659.03
2023-04-15T11:23:27.670Z,97667.97
2023-04-15T11:25:55.671Z,97686.72
2023-04-15T11:28:32.426Z,97677.00
2023-04-15T11:31:05.860Z,97689.50
2023-04-15T11:33:32.452Z,97657.44
2023-04-15T11:36:01.954Z,97702.41
2023-04-15T11:38:28.472Z,97704.59
2023-04-15T11:40:54.939Z,97707.16
2023-04-15T11:43:25.348Z,97702.13
2023-04-15T11:45:59.989Z,97711.94
2023-04-15T11:48:31.191Z,97709.34
2023-04-15T11:51:00.176Z,97706.97
2023-04-15T11:53:43.632Z,97706.66
2023-04-15T11:56:23.841Z,97708.63
2023-04-15T11:58:57.071Z,97729.22
2023-04-15T12:01:36.607Z,97737.25
2023-04-15T12:04:11.985Z,97734.63
2023-04-15T12:06:39.081Z,97742.09
2023-04-15T12:09:13.807Z,97733.41
2023-04-15T12:11:42.886Z,97747.41
2023-04-15T12:14:24.143Z,97736.22
2023-04-15T12:16:58.522Z,97732.81
2023-04-15T12:19:32.717Z,97741.53
2023-04-15T12:22:01.740Z,97730.50
2023-04-15T12:24:31.342Z,97748.03
2023-04-15T12:27:02.758Z,97753.94
2023-04-15T12:29:30.465Z,97754.13
2023-04-15T12:31:59.822Z,97752.16
2023-04-15T12:34:27.884Z,97772.59
2023-04-15T12:37:01.524Z,97774.59
2023-04-15T12:39:31.113Z,97756.06
2023-04-15T12:41:57.941Z,97782.94
2023-04-15T12:44:27.204Z,97777.31
2023-04-15T12:46:56.109Z,97765.41
2023-04-15T12:49:24.400Z,97784.63
2023-04-15T12:52:00.085Z,97782.84
2023-04-15T12:54:31.046Z,97802.16
2023-04-15T12:56:58.261Z,97815.50
2023-04-15T12:59:26.967Z,97789.88
2023-04-15T13:01:54.677Z,97800.22
2023-04-15T13:04:22.232Z,97801.03
2023-04-15T13:06:49.192Z,97821.78
2023-04-15T13:09:15.886Z,97825.16
2023-04-15T13:11:43.429Z,97817.91
2023-04-15T13:14:11.689Z,97820.81
2023-04-15T13:16:38.970Z,97826.28
2023-04-15T13:19:05.632Z,97773.72
2023-04-15T13:21:35.255Z,97840.19
2023-04-15T13:24:03.081Z,97817.53
2023-04-15T13:26:29.913Z,97854.94
2023-04-15T13:28:57.793Z,97848.38
2023-04-15T13:31:32.728Z,97831.44
2023-04-15T13:34:03.003Z,97787.94
2023-04-15T13:36:29.832Z,97848.13
2023-04-15T13:38:58.253Z,97848.25
2023-04-15T13:41:24.848Z,97853.09
2023-04-15T13:43:51.316Z,97852.03
2023-04-15T13:46:17.864Z,97842.09
2023-04-15T13:48:44.328Z,97830.84
2023-04-15T13:51:10.772Z,97828.63
2023-04-15T13:53:38.235Z,97868.81
2023-04-15T13:56:09.937Z,97861.38
2023-04-15T13:58:37.556Z,97867.09
2023-04-15T14:01:06.272Z,97869.63
2023-04-15T14:03:34.792Z,97873.84
2023-04-15T14:06:01.610Z,97861.59
2023-04-15T14:08:31.677Z,97873.75
2023-04-15T14:10:58.961Z,97881.09
2023-04-15T14:13:25.604Z,97865.88
2023-04-15T14:15:52.153Z,97878.19
2023-04-15T14:18:18.606Z,97879.09
2023-04-15T14:20:45.240Z,97886.97
2023-04-15T14:23:11.868Z,97882.75
2023-04-15T14:25:39.394Z,97888.47
2023-04-15T14:28:05.910Z,97884.78
2023-04-15T14:30:32.524Z,97906.00
2023-04-15T14:32:59.160Z,97894.13
2023-04-15T14:35:29.196Z,97908.88
2023-04-15T14:37:59.011Z,97921.56
2023-04-15T14:40:25.698Z,97907.34
2023-04-15T14:42:52.201Z,97920.28
2023-04-15T14:45:18.799Z,97898.38
2023-04-15T14:47:45.421Z,97915.75
2023-04-15T14:50:12.116Z,97907.81
2023-04-15T14:52:39.138Z,97919.19
2023-04-15T14:55:07.217Z,97938.03
2023-04-15T14:57:33.714Z,97938.69
2023-04-15T15:00:00.224Z,97931.59
2023-04-15T15:02:38.551Z,97945.81
2023-04-15T15:05:06.504Z,97928.31
2023-04-15T15:07:33.086Z,97918.66
2023-04-15T15:09:59.646Z,97944.13
2023-04-15T15:12:28.385Z,97940.22
2023-04-15T15:15:04.894Z,97932.16
2023-04-15T15:17:36.067Z,97955.00
2023-04-15T15:20:03.564Z,97972.44
2023-04-15T15:22:30.125Z,97963.34
2023-04-15T15:25:02.118Z,97976.94
2023-04-15T15:27:28.663Z,97979.41
2023-04-15T15:29:58.191Z,97972.31
2023-04-15T15:32:24.689Z,97978.66
2023-04-15T15:34:51.597Z,97989.84
2023-04-15T15:37:18.220Z,97964.78
2023-04-15T15:39:45.052Z,97972.41
2023-04-15T15:42:12.729Z,97966.91
2023-04-15T15:44:39.261Z,97984.97
2023-04-15T15:47:05.959Z,97995.81
2023-04-15T15:49:35.102Z,97996.56
2023-04-15T15:52:01.562Z,97988.81
2023-04-15T15:54:29.297Z,97979.75
2023-04-15T15:56:58.124Z,98004.34
2023-04-15T15:59:29.215Z,97982.91
2023-04-15T16:01:58.586Z,98010.13
2023-04-15T16:04:27.554Z,98001.47
2023-04-15T16:06:54.148Z,97987.84
2023-04-15T16:09:20.626Z,97987.84
2023-04-15T16:11:47.142Z,98020.53
2023-04-15T16:14:14.124Z,98021.16
2023-04-15T16:16:40.817Z,98015.13
2023-04-15T16:19:07.381Z,98028.16
2023-04-15T16:21:34.654Z,98033.59
2023-04-15T16:24:01.960Z,98022.75
2023-04-15T16:26:28.843Z,98034.91
2023-04-15T16:28:56.384Z,98018.69
2023-04-15T16:31:28.162Z,97981.03
2023-04-15T16:33:54.728Z,98033.53
2023-04-15T16:36:22.612Z,98049.66
2023-04-15T16:39:00.426Z,98044.94
2023-04-15T16:41:30.509Z,98053.25
2023-04-15T16:44:13.500Z,98061.69
2023-04-15T16:47:14.820Z,98058.81
2023-04-15T16:49:41.289Z,98064.09
2023-04-15T16:52:10.249Z,98029.47
2023-04-15T16:54:41.222Z,98070.56
2023-04-15T16:57:08.687Z,98067.63
2023-04-15T16:59:35.140Z,98069.00
2023-04-15T17:02:01.735Z,98059.34
2023-04-15T17:04:31.740Z,98083.22
2023-04-15T17:07:01.158Z,98089.00
2023-04-15T17:09:30.513Z,98083.84
2023-04-15T17:11:58.931Z,98082.06
2023-04-15T17:14:28.667Z,98082.66
2023-04-15T17:16:56.416Z,98089.00
2023-04-15T17:19:23.411Z,98087.50
2023-04-15T17:21:54.257Z,98099.53
2023-04-15T17:24:21.463Z,98093.13
2023-04-15T17:26:47.992Z,98099.72
2023-04-15T17:29:14.472Z,98108.59
2023-04-15T17:31:41.098Z,98094.59
2023-04-15T17:34:09.755Z,98089.00
2023-04-15T17:36:37.489Z,98093.66
2023-04-15T17:39:04.570Z,98121.94
2023-04-15T17:41:31.306Z,98100.59
2023-04-15T17:44:00.632Z,98111.63
2023-04-15T17:46:30.855Z,98093.13
2023-04-15T17:49:01.513Z,98131.72
2023-04-15T17:51:28.748Z,98139.91
2023-04-15T17:53:55.236Z,98144.78
2023-04-15T17:56:21.697Z,98134.28
2023-04-15T17:58:48.218Z,98142.50
2023-04-15T18:01:14.707Z,98147.50
2023-04-15T18:03:41.399Z,98136.16
2023-04-15T18:06:08.002Z,98140.97
2023-04-15T18:08:34.517Z,98144.19
2023-04-15T18:11:00.997Z,98156.84
2023-04-15T18:13:31.396Z,98148.25
2023-04-15T18:15:59.242Z,98166.13
2023-04-15T18:18:28.191Z,98140.63
2023-04-15T18:20:54.662Z,98164.16
2023-04-15T18:23:21.173Z,98171.75
2023-04-15T18:25:47.628Z,98168.03
2023-04-15T18:29:01.283Z,98174.88
2023-04-15T18:31:30.361Z,98185.25
2023-04-15T18:33:59.823Z,98171.72
2023-04-15T18:36:28.174Z,98187.97
2023-04-15T18:38:54.651Z,98188.81
2023-04-15T18:41:21.117Z,98178.09
2023-04-15T18:43:47.635Z,98184.31
2023-04-15T18:46:14.617Z,98174.63
2023-04-15T18:48:41.164Z,98198.88
2023-04-15T18:51:07.703Z,98212.06
2023-04-15T18:53:34.281Z,98220.41
2023-04-15T18:56:03.128Z,98223.56
2023-04-15T18:58:29.827Z,98228.00
2023-04-15T19:01:17.597Z,98239.69
2023-04-15T19:03:44.172Z,98239.09
2023-04-15T19:06:10.645Z,98244.25
2023-04-15T19:08:37.208Z,98250.31
2023-04-15T19:11:44.597Z,98259.47
2023-04-15T19:17:02.811Z,98247.22
2023-04-15T19:19:32.360Z,98256.69
2023-04-15T19:22:04.526Z,98265.31
2023-04-15T19:24:33.097Z,98251.88
2023-04-15T19:27:02.683Z,98268.38
2023-04-15T19:29:36.525Z,98277.38
2023-04-15T19:32:03.086Z,98280.28
2023-04-15T19:34:30.486Z,98271.84
2023-04-15T19:36:56.971Z,98281.25
2023-04-15T19:39:23.817Z,98267.41
2023-04-15T19:41:50.668Z,98281.94
2023-04-15T19:44:17.251Z,98283.91
2023-04-15T19:46:44.820Z,98282.06
2023-04-15T19:49:11.584Z,98284.97
2023-04-15T19:51:38.067Z,98282.34
2023-04-15T19:54:04.634Z,98293.19
2023-04-15T19:56:33.619Z,98305.13
2023-04-15T19:59:01.824Z,98290.84
2023-04-15T20:01:32.014Z,98298.34
2023-04-15T20:04:01.873Z,98311.66
2023-04-15T20:06:31.730Z,98309.84
2023-04-15T20:08:58.565Z,98320.97
2023-04-15T20:12:46.867Z,98310.69
2023-04-15T20:14:17.819Z,98307.63
2023-04-15T20:16:44.403Z,98324.44
2023-04-15T20:19:12.422Z,98322.78
2023-04-15T20:21:39.030Z,98315.72
2023-04-15T20:24:06.029Z,98321.41
2023-04-15T20:26:32.763Z,98310.31
2023-04-15T20:29:03.765Z,98323.34
2023-04-15T20:31:32.080Z,98321.53
2023-04-15T20:33:58.595Z,98322.91
2023-04-15T20:36:26.688Z,98327.34
2023-04-15T20:38:53.152Z,98325.81
2023-04-15T20:41:19.681Z,98330.41
2023-04-15T20:43:46.153Z,98331.81
2023-04-15T20:46:20.394Z,98327.09
2023-04-15T20:48:48.156Z,98325.97
2023-04-15T20:51:15.172Z,98316.25
2023-04-15T20:53:42.180Z,98330.16
2023-04-15T20:56:09.066Z,98340.28
2023-04-15T20:58:35.615Z,98345.41
2023-04-15T21:01:05.196Z,98347.91
2023-04-15T21:03:35.069Z,98354.00
2023-04-15T21:06:03.288Z,98353.59
2023-04-15T21:08:32.464Z,98359.97
2023-04-15T21:10:58.895Z,98369.13
2023-04-15T21:13:25.560Z,98372.75
2023-04-15T21:15:54.260Z,98368.03
2023-04-15T21:18:21.609Z,98375.06
2023-04-15T21:20:59.025Z,98378.44
2023-04-15T21:23:26.184Z,98377.97
2023-04-15T21:25:52.920Z,98365.91
2023-04-15T21:28:19.497Z,98367.03
2023-04-15T21:30:46.283Z,98378.56
2023-04-15T21:33:12.813Z,98379.50
2023-04-15T21:35:39.382Z,98383.72
2023-04-15T21:38:05.895Z,98377.06
2023-04-15T21:40:34.763Z,98366.91
2023-04-15T21:43:01.219Z,98378.44
2023-04-15T21:45:27.719Z,98375.78
2023-04-15T21:47:57.090Z,98389.22
2023-04-15T21:50:57.407Z,98401.44
2023-04-15T21:53:23.870Z,98408.69
2023-04-15T21:55:50.523Z,98396.03
2023-04-15T21:58:17.029Z,98397.97
2023-04-15T22:00:43.439Z,98402.84
2023-04-15T22:03:10.119Z,98409.78
2023-04-15T22:05:36.785Z,98399.25
2023-04-15T22:08:07.413Z,98411.00
2023-04-15T22:10:37.676Z,98415.31
2023-04-15T22:13:11.416Z,98416.72
2023-04-15T22:15:37.979Z,98424.66
2023-04-15T22:18:06.719Z,98418.94
2023-04-15T22:20:33.293Z,98411.31
2023-04-15T22:22:59.873Z,98418.94
2023-04-15T22:25:26.390Z,98420.19
2023-04-15T22:27:52.862Z,98419.91
2023-04-15T22:30:19.368Z,98424.78
2023-04-15T22:32:46.019Z,98425.88
2023-04-15T22:35:12.469Z,98420.34
2023-04-15T22:37:38.970Z,98424.22
2023-04-15T22:40:09.543Z,98421.16
2023-04-15T22:42:38.540Z,98423.91
2023-04-15T22:45:07.617Z,98416.28
2023-04-15T22:47:34.157Z,98408.94
2023-04-15T22:50:00.809Z,98421.28
2023-04-15T22:52:30.882Z,98428.53
2023-04-15T22:54:58.585Z,98428.09
2023-04-15T22:57:25.515Z,98421.56
2023-04-15T22:59:52.002Z,98422.13
2023-04-15T23:02:18.532Z,98427.13
2023-04-15T23:04:45.461Z,98431.72
2023-04-15T23:07:12.025Z,98424.22
2023-04-15T23:09:41.698Z,98422.41
2023-04-15T23:12:10.101Z,98437.97
2023-04-15T23:14:36.536Z,98441.56
2023-04-15T23:17:02.971Z,98451.13
2023-04-15T23:19:30.633Z,98444.75
2023-04-15T23:21:57.173Z,98442.78
2023-04-15T23:24:23.736Z,98460.84
2023-04-15T23:26:50.206Z,98448.34
2023-04-15T23:29:16.638Z,98465.00
2023-04-15T23:31:43.228Z,98445.72
2023-04-15T23:34:12.504Z,98465.56
2023-04-15T23:36:39.464Z,98456.00
2023-04-15T23:39:06.494Z,98460.56
2023-04-15T23:41:32.933Z,98464.88
2023-04-15T23:43:59.397Z,98470.72
2023-04-15T23:46:25.950Z,98463.34
2023-04-15T23:48:52.387Z,98465.31
2023-04-15T23:51:18.858Z,98469.75
2023-04-15T23:53:45.492Z,98474.88
2023-04-15T23:56:14.856Z,98464.75
2023-04-15T23:58:44.402Z,98470.31
